createdAt,value
2023-02-12T00:03:27.991Z,103714.56
2023-02-12T00:08:34.350Z,103720.81
2023-02-12T00:13:38.898Z,103712.06
2023-02-12T00:18:45.906Z,103719.19
2023-02-12T00:23:51.320Z,103716.63
2023-02-12T00:28:55.632Z,103721.09
2023-02-12T00:33:59.289Z,103722.13
2023-02-12T00:39:03.961Z,103732.00
2023-02-12T00:44:08.245Z,103731.22
2023-02-12T00:49:10.816Z,103721.34
2023-02-12T00:54:13.273Z,103725.03
2023-02-12T00:59:15.382Z,103726.81
2023-02-12T01:04:19.775Z,103724.28
2023-02-12T01:09:24.802Z,103730.44
2023-02-12T01:14:26.668Z,103741.00
2023-02-12T01:19:31.662Z,103736.63
2023-02-12T01:24:35.803Z,103730.44
2023-02-12T01:29:44.658Z,103723.41
2023-02-12T01:34:51.229Z,103730.63
2023-02-12T01:39:55.385Z,103721.00
2023-02-12T01:45:12.384Z,103726.41
2023-02-12T01:50:17.809Z,103729.09
2023-02-12T01:55:22.270Z,103720.31
2023-02-12T02:00:25.585Z,103722.03
2023-02-12T02:05:43.351Z,103722.13
2023-02-12T02:10:53.923Z,103728.38
2023-02-12T02:16:00.745Z,103730.00
2023-02-12T02:21:19.778Z,103719.38
2023-02-12T02:26:47.515Z,103733.63
2023-02-12T02:32:03.591Z,103737.22
2023-02-12T02:37:34.474Z,103731.31
2023-02-12T02:43:10.051Z,103749.16
2023-02-12T02:48:16.371Z,103752.78
2023-02-12T02:53:27.173Z,103746.56
2023-02-12T02:58:40.050Z,103731.72
2023-02-12T03:03:46.785Z,103738.00
2023-02-12T03:08:55.763Z,103730.09
2023-02-12T03:14:03.446Z,103726.66
2023-02-12T03:19:12.185Z,103734.63
2023-02-12T03:24:21.758Z,103720.47
2023-02-12T03:29:23.453Z,103720.56
2023-02-12T03:34:43.609Z,103718.84
2023-02-12T03:40:16.389Z,103721.53
2023-02-12T03:45:47.691Z,103718.00
2023-02-12T03:51:18.202Z,103713.53
2023-02-12T03:56:41.737Z,103715.50
2023-02-12T04:01:45.803Z,103731.47
2023-02-12T04:06:49.360Z,103727.75
2023-02-12T04:12:13.368Z,103734.88
2023-02-12T04:17:22.727Z,103747.34
2023-02-12T04:22:40.953Z,103745.63
2023-02-12T04:27:47.775Z,103747.34
2023-02-12T04:33:02.391Z,103757.97
2023-02-12T04:38:06.561Z,103763.13
2023-02-12T04:43:08.692Z,103760.47
2023-02-12T04:48:10.637Z,103763.13
2023-02-12T04:53:14.638Z,103769.31
2023-02-12T04:58:17.275Z,103761.50
2023-02-12T05:03:21.310Z,103761.59
2023-02-12T05:08:23.023Z,103757.97
2023-02-12T05:13:26.061Z,103756.16
2023-02-12T05:18:27.765Z,103757.13
2023-02-12T05:23:30.390Z,103752.72
2023-02-12T05:28:32.279Z,103771.44
2023-02-12T05:33:37.193Z,103756.41
2023-02-12T05:38:40.062Z,103761.03
2023-02-12T05:43:43.101Z,103757.72
2023-02-12T05:48:50.120Z,103770.16
2023-02-12T05:53:59.969Z,103766.78
2023-02-12T05:59:05.951Z,103776.56
2023-02-12T06:04:10.896Z,103776.72
2023-02-12T06:09:13.630Z,103774.28
2023-02-12T06:14:21.706Z,103787.75
2023-02-12T06:19:24.377Z,103793.19
2023-02-12T06:24:28.344Z,103805.88
2023-02-12T06:29:34.783Z,103809.63
2023-02-12T06:34:38.048Z,103810.41
2023-02-12T06:39:47.061Z,103811.69
2023-02-12T06:44:53.026Z,103826.13
2023-02-12T06:49:54.930Z,103828.78
2023-02-12T06:54:59.994Z,103831.56
2023-02-12T07:00:01.807Z,103840.44
2023-02-12T07:05:09.057Z,103852.88
2023-02-12T07:10:11.145Z,103853.97
2023-02-12T07:15:14.931Z,103864.59
2023-02-12T07:20:21.142Z,103867.56
2023-02-12T07:25:25.198Z,103871.41
2023-02-12T07:30:28.986Z,103863.44
2023-02-12T07:35:37.646Z,103871.00
2023-02-12T07:40:44.191Z,103872.09
2023-02-12T07:45:48.497Z,103880.53
2023-02-12T07:50:54.899Z,103878.50
2023-02-12T07:56:30.820Z,103875.84
2023-02-12T08:01:45.184Z,103888.59
2023-02-12T08:06:54.012Z,103874.22
2023-02-12T08:11:59.007Z,103882.06
2023-02-12T08:17:00.948Z,103882.59
2023-02-12T08:22:03.246Z,103883.84
2023-02-12T08:27:07.413Z,103889.03
2023-02-12T08:32:14.480Z,103895.50
2023-02-12T08:37:16.322Z,103902.13
2023-02-12T08:42:25.964Z,103911.28
2023-02-12T08:47:29.782Z,103908.00
2023-02-12T08:52:35.364Z,103915.06
2023-02-12T08:57:42.301Z,103912.53
2023-02-12T09:02:51.450Z,103921.84
2023-02-12T09:07:56.624Z,103927.09
2023-02-12T09:13:00.577Z,103932.56
2023-02-12T09:18:04.115Z,103929.22
2023-02-12T09:23:12.384Z,103927.09
2023-02-12T09:28:15.454Z,103938.66
2023-02-12T09:33:20.579Z,103936.31
2023-02-12T09:38:24.796Z,103943.28
2023-02-12T09:43:55.779Z,103945.84
2023-02-12T09:49:02.052Z,103950.59
2023-02-12T09:54:20.352Z,103951.88
2023-02-12T09:59:31.123Z,103962.66
2023-02-12T10:04:33.257Z,103954.63
2023-02-12T10:09:43.078Z,103958.03
2023-02-12T10:14:58.208Z,103952.69
2023-02-12T10:20:12.465Z,103947.13
2023-02-12T10:25:29.011Z,103953.91
2023-02-12T10:30:59.006Z,103967.59
2023-02-12T10:36:21.664Z,103958.38
2023-02-12T10:41:25.370Z,103955.09
2023-02-12T10:46:30.967Z,103952.31
2023-02-12T10:52:02.827Z,103959.94
2023-02-12T10:57:15.619Z,103963.22
2023-02-12T11:02:32.990Z,103958.53
2023-02-12T11:07:47.447Z,103961.69
2023-02-12T11:12:54.288Z,103955.88
2023-02-12T11:18:00.530Z,103954.94
2023-02-12T11:23:07.617Z,103947.81
2023-02-12T11:28:20.731Z,103953.47
2023-02-12T11:33:26.277Z,103958.69
2023-02-12T11:38:34.160Z,103946.72
2023-02-12T11:43:43.343Z,103944.88
2023-02-12T11:48:54.018Z,103942.56
2023-02-12T11:54:03.772Z,103945.41
2023-02-12T11:59:45.643Z,103937.53
2023-02-12T12:04:52.502Z,103939.91
2023-02-12T12:10:06.187Z,103934.41
2023-02-12T12:15:38.491Z,103937.28
2023-02-12T12:21:21.201Z,103929.44
2023-02-12T12:26:26.903Z,103924.94
2023-02-12T12:31:36.140Z,103921.13
2023-02-12T12:36:55.897Z,103927.53
2023-02-12T12:42:13.043Z,103912.03
2023-02-12T12:47:36.188Z,103916.16
2023-02-12T12:52:55.710Z,103910.28
2023-02-12T12:58:30.594Z,103907.75
2023-02-12T13:04:00.636Z,103899.66
2023-02-12T13:09:17.291Z,103887.44
2023-02-12T13:15:03.343Z,103889.31
2023-02-12T13:20:20.349Z,103883.56
2023-02-12T13:25:33.410Z,103881.72
2023-02-12T13:30:54.188Z,103888.47
2023-02-12T13:36:01.739Z,103876.56
2023-02-12T13:41:07.033Z,103884.47
2023-02-12T13:46:11.578Z,103870.28
2023-02-12T13:51:30.790Z,103871.44
2023-02-12T13:56:59.056Z,103867.44
2023-02-12T14:02:03.513Z,103864.31
2023-02-12T14:07:09.991Z,103870.44
2023-02-12T14:12:23.704Z,103868.69
2023-02-12T14:17:30.741Z,103864.88
2023-02-12T14:22:32.426Z,103866.09
2023-02-12T14:27:35.838Z,103866.16
2023-02-12T14:32:53.366Z,103879.97
2023-02-12T14:38:01.695Z,103875.47
2023-02-12T14:43:30.822Z,103874.78
2023-02-12T14:49:06.123Z,103877.47
2023-02-12T14:54:25.940Z,103869.44
2023-02-12T14:59:30.560Z,103877.69
2023-02-12T15:04:40.091Z,103861.34
2023-02-12T15:09:52.396Z,103869.28
2023-02-12T15:15:04.841Z,103876.63
2023-02-12T15:20:28.126Z,103881.19
2023-02-12T15:25:32.955Z,103877.53
2023-02-12T15:30:42.399Z,103875.41
2023-02-12T15:35:47.325Z,103868.56
2023-02-12T15:40:59.737Z,103868.22
2023-02-12T15:46:06.571Z,103862.69
2023-02-12T15:51:36.128Z,103863.94
2023-02-12T15:56:40.627Z,103865.28
2023-02-12T16:01:56.430Z,103865.66
2023-02-12T16:06:59.463Z,103867.16
2023-02-12T16:12:05.462Z,103870.47
2023-02-12T16:17:25.337Z,103876.94
2023-02-12T16:22:35.647Z,103876.38
2023-02-12T16:27:40.296Z,103882.28
2023-02-12T16:32:44.471Z,103881.44
2023-02-12T16:38:00.367Z,103886.47
2023-02-12T16:43:31.725Z,103884.19
2023-02-12T16:48:39.067Z,103881.88
2023-02-12T16:53:46.957Z,103889.41
2023-02-12T16:58:51.695Z,103900.34
2023-02-12T17:03:54.910Z,103911.28
2023-02-12T17:09:05.125Z,103909.66
2023-02-12T17:14:09.481Z,103917.94
2023-02-12T17:19:11.923Z,103927.97
2023-02-12T17:24:25.034Z,103929.22
2023-02-12T17:29:30.677Z,103928.59
2023-02-12T17:34:43.154Z,103925.94
2023-02-12T17:39:52.540Z,103933.84
2023-02-12T17:44:55.241Z,103931.63
2023-02-12T17:49:57.481Z,103947.03
2023-02-12T17:54:59.200Z,103955.22
2023-02-12T18:00:03.172Z,103954.44
2023-02-12T18:05:12.146Z,103956.31
2023-02-12T18:10:14.063Z,103954.59
2023-02-12T18:15:15.893Z,103947.72
2023-02-12T18:20:20.222Z,103947.81
2023-02-12T18:25:21.996Z,103938.19
2023-02-12T18:30:26.184Z,103941.13
2023-02-12T18:35:30.525Z,103935.03
2023-02-12T18:40:34.648Z,103940.44
2023-02-12T18:45:39.549Z,103930.88
2023-02-12T18:50:43.575Z,103936.28
2023-02-12T18:55:48.321Z,103929.34
2023-02-12T19:00:52.416Z,103925.91
2023-02-12T19:06:03.819Z,103937.75
2023-02-12T19:11:09.396Z,103926.41
2023-02-12T19:16:14.214Z,103931.75
2023-02-12T19:21:19.109Z,103940.75
2023-02-12T19:26:21.103Z,103930.38
2023-02-12T19:31:28.406Z,103934.72
2023-02-12T19:36:35.254Z,103942.78
2023-02-12T19:41:41.254Z,103938.63
2023-02-12T19:46:43.186Z,103950.19
2023-02-12T19:51:45.555Z,103948.63
2023-02-12T19:56:48.331Z,103931.81
2023-02-12T20:01:56.540Z,103942.53
2023-02-12T20:06:58.307Z,103943.47
2023-02-12T20:12:02.306Z,103952.31
2023-02-12T20:17:05.865Z,103949.66
2023-02-12T20:22:10.156Z,103951.63
2023-02-12T20:27:13.183Z,103953.44
2023-02-12T20:32:17.673Z,103950.75
2023-02-12T20:37:19.911Z,103951.81
2023-02-12T20:42:22.906Z,103943.81
2023-02-12T20:47:28.817Z,103945.63
2023-02-12T20:52:31.859Z,103941.31
2023-02-12T20:57:34.889Z,103931.53
2023-02-12T21:02:36.999Z,103936.00
2023-02-12T21:07:41.173Z,103938.56
2023-02-12T21:12:43.132Z,103938.66
2023-02-12T21:17:44.906Z,103942.25
2023-02-12T21:22:52.006Z,103936.16
2023-02-12T21:28:00.390Z,103931.84
2023-02-12T21:33:05.145Z,103932.88
2023-02-12T21:38:12.426Z,103922.31
2023-02-12T21:43:19.468Z,103932.09
2023-02-12T21:48:23.327Z,103929.63
2023-02-12T21:53:28.340Z,103932.34
2023-02-12T21:58:33.153Z,103931.59
2023-02-12T22:03:34.919Z,103931.66
2023-02-12T22:08:37.062Z,103926.25
2023-02-12T22:13:43.798Z,103923.75
2023-02-12T22:18:46.468Z,103922.09
2023-02-12T22:23:50.891Z,103918.53
2023-02-12T22:29:01.380Z,103918.66
2023-02-12T22:34:06.258Z,103925.78
2023-02-12T22:39:13.178Z,103923.31
2023-02-12T22:44:15.873Z,103919.78
2023-02-12T22:49:20.048Z,103930.41
2023-02-12T22:54:21.944Z,103931.28
2023-02-12T22:59:26.412Z,103920.78
2023-02-12T23:04:32.672Z,103925.19
2023-02-12T23:09:39.018Z,103932.31
2023-02-12T23:14:43.692Z,103929.81
2023-02-12T23:19:48.225Z,103929.03
2023-02-12T23:24:51.009Z,103924.47
2023-02-12T23:29:55.492Z,103920.13
2023-02-12T23:34:59.897Z,103909.47
2023-02-12T23:40:04.023Z,103914.94
2023-02-12T23:45:11.015Z,103919.41
2023-02-12T23:50:12.740Z,103918.63
2023-02-12T23:55:20.258Z,103920.38
